createdAt,value
2022-10-18T00:02:46.631Z,8.70
2022-10-18T00:05:35.534Z,6.10
2022-10-18T00:08:24.395Z,7.93
2022-10-18T00:11:13.241Z,6.37
2022-10-18T00:14:02.061Z,7.00
2022-10-18T00:16:50.916Z,6.67
2022-10-18T00:19:41.085Z,13.83
2022-10-18T00:22:30.333Z,7.47
2022-10-18T00:25:19.631Z,8.07
2022-10-18T00:28:08.796Z,7.10
2022-10-18T00:30:57.635Z,7.30
2022-10-18T00:33:47.229Z,5.60
2022-10-18T00:36:37.773Z,8.53
2022-10-18T00:39:26.933Z,6.80
2022-10-18T00:42:17.953Z,9.30
2022-10-18T00:45:14.521Z,7.37
2022-10-18T00:48:05.130Z,6.60
2022-10-18T00:50:54.410Z,7.10
2022-10-18T00:53:44.711Z,9.50
2022-10-18T00:56:35.126Z,5.93
2022-10-18T00:59:24.168Z,10.63
2022-10-18T01:02:14.903Z,5.30
2022-10-18T01:05:03.697Z,7.30
2022-10-18T01:08:00.848Z,5.30
2022-10-18T01:10:56.143Z,5.97
2022-10-18T01:13:49.657Z,7.13
2022-10-18T01:16:41.225Z,7.43
2022-10-18T01:19:53.421Z,8.07
2022-10-18T01:22:45.514Z,7.50
2022-10-18T01:25:38.989Z,6.07
2022-10-18T01:28:37.936Z,6.13
2022-10-18T01:31:30.581Z,9.70
2022-10-18T01:34:20.377Z,7.97
2022-10-18T01:37:11.356Z,11.60
2022-10-18T01:40:03.507Z,7.43
2022-10-18T01:42:52.924Z,10.80
2022-10-18T01:45:42.014Z,8.40
2022-10-18T01:48:33.439Z,6.67
2022-10-18T01:51:24.589Z,7.07
2022-10-18T01:54:14.726Z,8.23
2022-10-18T01:57:05.253Z,8.50
2022-10-18T01:59:59.060Z,9.47
2022-10-18T02:02:49.317Z,7.93
2022-10-18T02:05:42.191Z,13.03
2022-10-18T02:08:33.644Z,9.13
2022-10-18T02:11:22.466Z,9.60
2022-10-18T02:14:13.796Z,8.43
2022-10-18T02:17:03.329Z,8.43
2022-10-18T02:19:54.655Z,8.50
2022-10-18T02:22:46.530Z,8.03
2022-10-18T02:25:36.222Z,11.03
2022-10-18T02:31:21.724Z,7.13
2022-10-18T02:34:12.711Z,8.20
2022-10-18T02:37:02.343Z,9.27
2022-10-18T02:39:53.206Z,8.50
2022-10-18T02:42:45.399Z,7.33
2022-10-18T02:45:34.587Z,10.23
2022-10-18T02:48:23.484Z,8.53
2022-10-18T02:51:12.311Z,9.80
2022-10-18T02:54:01.128Z,8.17
2022-10-18T02:56:51.480Z,6.80
2022-10-18T02:59:40.671Z,8.60
2022-10-18T03:02:29.842Z,10.93
2022-10-18T03:05:18.765Z,7.80
2022-10-18T03:08:07.667Z,10.37
2022-10-18T03:10:56.534Z,7.43
2022-10-18T03:13:46.672Z,7.57
2022-10-18T03:16:35.512Z,8.87
2022-10-18T03:19:24.351Z,11.90
2022-10-18T03:22:13.214Z,9.53
2022-10-18T03:25:02.087Z,9.50
2022-10-18T03:27:50.898Z,9.33
2022-10-18T03:30:41.054Z,8.10
2022-10-18T03:33:30.001Z,8.93
2022-10-18T03:36:18.961Z,6.77
2022-10-18T03:39:07.774Z,8.20
2022-10-18T03:41:56.587Z,7.07
2022-10-18T03:44:45.388Z,7.90
2022-10-18T03:47:35.733Z,9.83
2022-10-18T03:50:24.569Z,10.77
2022-10-18T03:53:13.458Z,12.00
2022-10-18T03:56:02.309Z,11.10
2022-10-18T03:58:51.148Z,9.30
2022-10-18T04:01:40.020Z,10.20
2022-10-18T04:04:30.241Z,7.37
2022-10-18T04:07:19.049Z,7.80
2022-10-18T04:10:08.387Z,7.90
2022-10-18T04:12:57.209Z,7.80
2022-10-18T04:15:46.110Z,7.30
2022-10-18T04:18:34.937Z,9.43
2022-10-18T04:21:25.149Z,9.90
2022-10-18T04:24:13.965Z,9.57
2022-10-18T04:27:02.784Z,8.40
2022-10-18T04:29:51.619Z,7.10
2022-10-18T04:32:40.431Z,12.03
2022-10-18T04:35:29.320Z,6.00
2022-10-18T04:38:19.489Z,9.87
2022-10-18T04:41:08.283Z,9.30
2022-10-18T04:43:57.135Z,6.83
2022-10-18T04:46:46.031Z,10.37
2022-10-18T04:49:34.869Z,7.97
2022-10-18T04:52:23.711Z,13.83
2022-10-18T04:55:13.906Z,8.93
2022-10-18T04:58:02.733Z,12.73
2022-10-18T05:00:51.653Z,6.77
2022-10-18T05:03:40.523Z,9.27
2022-10-18T05:06:29.363Z,11.57
2022-10-18T05:09:18.226Z,10.53
2022-10-18T05:12:08.487Z,10.30
2022-10-18T05:14:57.385Z,8.27
2022-10-18T05:17:46.223Z,9.33
2022-10-18T05:20:35.088Z,13.63
2022-10-18T05:23:23.967Z,10.30
2022-10-18T05:26:12.824Z,12.00
2022-10-18T05:29:03.098Z,9.43
2022-10-18T05:31:53.078Z,9.73
2022-10-18T05:34:41.967Z,12.67
2022-10-18T05:37:31.155Z,10.73
2022-10-18T05:40:20.034Z,11.73
2022-10-18T05:43:08.872Z,12.50
2022-10-18T05:45:59.105Z,12.43
2022-10-18T05:48:51.437Z,9.50
2022-10-18T05:51:40.410Z,13.13
2022-10-18T05:54:29.263Z,8.93
2022-10-18T05:57:18.095Z,11.20
2022-10-18T06:00:07.448Z,18.10
2022-10-18T06:03:00.193Z,10.23
2022-10-18T06:05:49.492Z,11.27
2022-10-18T06:08:38.530Z,14.07
2022-10-18T06:11:27.451Z,11.00
2022-10-18T06:14:16.283Z,9.60
2022-10-18T06:17:05.393Z,10.57
2022-10-18T06:19:55.641Z,14.00
2022-10-18T06:22:44.474Z,20.40
2022-10-18T06:25:33.326Z,16.20
2022-10-18T06:28:22.150Z,12.20
2022-10-18T06:31:12.693Z,14.60
2022-10-18T06:34:02.544Z,18.93
2022-10-18T06:36:56.436Z,12.43
2022-10-18T06:39:46.862Z,15.67
2022-10-18T06:42:35.717Z,15.37
2022-10-18T06:45:24.751Z,10.87
2022-10-18T06:48:13.641Z,16.00
2022-10-18T06:51:03.316Z,17.83
2022-10-18T06:54:06.123Z,14.83
2022-10-18T06:57:02.668Z,16.90
2022-10-18T06:59:52.015Z,14.27
2022-10-18T07:02:41.278Z,21.47
2022-10-18T07:05:30.271Z,17.67
2022-10-18T07:08:19.666Z,18.80
2022-10-18T07:11:10.537Z,16.23
2022-10-18T07:14:03.047Z,19.80
2022-10-18T07:16:51.944Z,19.20
2022-10-18T07:19:40.783Z,17.57
2022-10-18T07:22:30.491Z,17.07
2022-10-18T07:25:19.475Z,15.80
2022-10-18T07:28:09.609Z,18.17
2022-10-18T07:31:02.413Z,23.70
2022-10-18T07:33:54.945Z,18.50
2022-10-18T07:36:43.860Z,20.80
2022-10-18T07:39:32.696Z,18.27
2022-10-18T07:42:21.508Z,22.67
2022-10-18T07:45:13.585Z,17.77
2022-10-18T07:48:02.437Z,20.50
2022-10-18T07:50:51.294Z,22.30
2022-10-18T07:53:40.165Z,23.60
2022-10-18T07:56:28.997Z,22.30
2022-10-18T07:59:17.828Z,21.30
2022-10-18T08:02:08.135Z,25.27
2022-10-18T08:04:56.988Z,33.97
2022-10-18T08:07:45.789Z,34.67
2022-10-18T08:10:36.004Z,27.83
2022-10-18T08:13:24.855Z,30.63
2022-10-18T08:16:14.893Z,29.03
2022-10-18T08:19:05.750Z,28.17
2022-10-18T08:21:54.582Z,26.63
2022-10-18T08:24:43.547Z,31.90
2022-10-18T08:27:32.703Z,29.53
2022-10-18T08:30:23.286Z,24.37
2022-10-18T08:33:12.158Z,27.37
2022-10-18T08:36:05.613Z,31.20
2022-10-18T08:38:54.565Z,30.50
2022-10-18T08:41:56.174Z,30.87
2022-10-18T08:44:46.873Z,30.50
2022-10-18T08:47:37.224Z,24.63
2022-10-18T08:50:28.589Z,28.57
2022-10-18T08:53:21.286Z,28.10
2022-10-18T08:56:14.769Z,26.87
2022-10-18T08:59:04.614Z,29.73
2022-10-18T09:02:01.091Z,29.83
2022-10-18T09:04:52.939Z,29.40
2022-10-18T09:07:52.908Z,31.00
2022-10-18T09:10:46.427Z,31.17
2022-10-18T09:13:46.306Z,25.77
2022-10-18T09:16:38.055Z,28.13
2022-10-18T09:19:36.705Z,46.23
2022-10-18T09:22:33.255Z,33.87
2022-10-18T09:25:23.455Z,28.60
2022-10-18T09:28:18.120Z,30.17
2022-10-18T09:31:09.135Z,31.13
2022-10-18T09:34:01.559Z,31.53
2022-10-18T09:36:52.830Z,28.50
2022-10-18T09:39:42.721Z,30.60
2022-10-18T09:42:33.412Z,36.07
2022-10-18T09:45:26.849Z,31.90
2022-10-18T09:48:19.489Z,31.53
2022-10-18T09:51:11.395Z,24.63
2022-10-18T09:54:19.609Z,26.10
2022-10-18T09:57:11.581Z,31.83
2022-10-18T10:00:01.721Z,24.33
2022-10-18T10:02:52.069Z,25.07
2022-10-18T10:05:41.000Z,28.37
2022-10-18T10:08:34.189Z,23.00
2022-10-18T10:11:33.466Z,20.03
2022-10-18T10:14:25.478Z,21.93
2022-10-18T10:17:23.647Z,26.20
2022-10-18T10:20:19.896Z,23.00
2022-10-18T10:23:10.701Z,26.10
2022-10-18T10:26:01.250Z,24.17
2022-10-18T10:28:50.456Z,23.03
2022-10-18T10:31:39.420Z,24.40
2022-10-18T10:34:31.653Z,28.37
2022-10-18T10:37:27.330Z,23.00
2022-10-18T10:40:20.471Z,25.53
2022-10-18T10:43:40.122Z,22.27
2022-10-18T10:46:35.577Z,26.23
2022-10-18T10:49:39.694Z,26.30
2022-10-18T10:52:31.548Z,23.70
2022-10-18T10:55:34.806Z,20.03
2022-10-18T10:58:24.626Z,17.20
2022-10-18T11:01:30.439Z,17.97
2022-10-18T11:04:26.598Z,16.67
2022-10-18T11:07:18.402Z,13.57
2022-10-18T11:10:12.715Z,14.48
2022-10-18T11:13:05.103Z,24.27
2022-10-18T11:15:54.793Z,14.50
2022-10-18T11:18:45.373Z,13.60
2022-10-18T11:21:34.508Z,13.98
2022-10-18T11:24:23.713Z,16.20
2022-10-18T11:27:16.451Z,13.43
2022-10-18T11:30:13.603Z,14.90
2022-10-18T11:33:07.634Z,13.05
2022-10-18T11:36:02.861Z,11.23
2022-10-18T11:38:57.565Z,11.63
2022-10-18T11:41:50.806Z,11.68
2022-10-18T11:44:48.275Z,10.35
2022-10-18T11:47:42.561Z,9.30
2022-10-18T11:50:34.333Z,9.30
2022-10-18T11:53:27.878Z,8.55
2022-10-18T11:56:20.375Z,11.05
2022-10-18T11:59:16.597Z,8.23
2022-10-18T12:02:26.066Z,8.93
2022-10-18T12:05:23.749Z,8.48
2022-10-18T12:08:15.479Z,7.57
2022-10-18T12:11:07.976Z,8.48
2022-10-18T12:13:58.794Z,7.40
2022-10-18T12:16:51.471Z,8.38
2022-10-18T12:19:42.797Z,11.95
2022-10-18T12:22:36.741Z,7.32
2022-10-18T12:25:26.239Z,9.13
2022-10-18T12:28:18.007Z,10.52
2022-10-18T12:31:09.709Z,8.23
2022-10-18T12:34:00.685Z,6.90
2022-10-18T12:36:55.044Z,5.47
2022-10-18T12:40:08.608Z,7.57
2022-10-18T12:42:55.920Z,6.60
2022-10-18T12:45:55.947Z,8.07
2022-10-18T12:48:45.974Z,5.75
2022-10-18T12:51:34.947Z,5.78
2022-10-18T12:54:25.641Z,8.25
2022-10-18T12:57:25.250Z,11.10
2022-10-18T13:00:47.742Z,8.27
2022-10-18T13:03:58.562Z,7.45
2022-10-18T13:07:14.497Z,6.88
2022-10-18T13:10:21.859Z,7.22
2022-10-18T13:13:38.659Z,9.68
2022-10-18T13:16:35.268Z,9.85
2022-10-18T13:19:29.466Z,5.93
2022-10-18T13:22:23.987Z,8.70
2022-10-18T13:25:17.534Z,8.13
2022-10-18T13:28:15.730Z,6.23
2022-10-18T13:31:21.280Z,8.93
2022-10-18T13:34:24.717Z,7.53
2022-10-18T13:37:23.950Z,14.13
2022-10-18T13:40:16.470Z,12.83
2022-10-18T13:43:20.244Z,9.80
2022-10-18T13:46:10.518Z,6.83
2022-10-18T13:49:01.113Z,6.37
2022-10-18T13:51:54.637Z,4.83
2022-10-18T13:54:52.870Z,6.00
2022-10-18T13:57:47.050Z,10.60
2022-10-18T14:00:49.238Z,5.30
2022-10-18T14:03:57.960Z,6.93
2022-10-18T14:06:49.080Z,3.27
2022-10-18T14:09:45.982Z,5.20
2022-10-18T14:12:39.810Z,4.78
2022-10-18T14:15:31.152Z,3.08
2022-10-18T14:18:23.717Z,12.10
2022-10-18T14:21:17.744Z,5.80
2022-10-18T14:24:19.475Z,9.43
2022-10-18T14:27:12.804Z,6.53
2022-10-18T14:30:12.619Z,6.70
2022-10-18T14:33:01.528Z,6.32
2022-10-18T14:36:00.012Z,6.88
2022-10-18T14:38:50.817Z,7.53
2022-10-18T14:41:50.478Z,4.00
2022-10-18T14:44:39.285Z,4.63
2022-10-18T14:47:30.041Z,2.95
2022-10-18T14:50:22.635Z,6.00
2022-10-18T14:53:15.601Z,3.42
2022-10-18T14:56:05.580Z,4.47
2022-10-18T14:58:58.105Z,3.22
2022-10-18T15:01:54.124Z,3.80
2022-10-18T15:04:45.412Z,3.35
2022-10-18T15:07:34.683Z,4.43
2022-10-18T15:10:27.542Z,5.60
2022-10-18T15:13:17.668Z,2.65
2022-10-18T15:16:08.533Z,5.32
2022-10-18T15:19:01.424Z,4.93
2022-10-18T15:22:08.079Z,8.07
2022-10-18T15:25:10.877Z,6.97
2022-10-18T15:28:00.263Z,4.97
2022-10-18T15:30:49.466Z,3.78
2022-10-18T15:33:39.768Z,7.57
2022-10-18T15:36:31.101Z,5.63
2022-10-18T15:39:20.726Z,4.05
2022-10-18T15:42:32.721Z,4.90
2022-10-18T15:45:32.333Z,2.42
2022-10-18T15:48:22.967Z,5.70
2022-10-18T15:51:20.986Z,6.57
2022-10-18T15:54:18.800Z,3.50
2022-10-18T15:57:08.620Z,4.40
2022-10-18T16:00:00.475Z,2.50
2022-10-18T16:02:49.568Z,1.50
2022-10-18T16:05:39.021Z,4.70
2022-10-18T16:08:30.621Z,5.90
2022-10-18T16:11:21.340Z,2.70
2022-10-18T16:14:10.491Z,6.70
2022-10-18T16:17:00.632Z,3.13
2022-10-18T16:19:49.825Z,2.87
2022-10-18T16:22:38.953Z,3.10
2022-10-18T16:25:29.471Z,5.20
2022-10-18T16:28:19.122Z,3.13
2022-10-18T16:31:08.276Z,5.77
2022-10-18T16:33:57.581Z,9.57
2022-10-18T16:36:46.623Z,2.87
2022-10-18T16:39:35.522Z,4.40
2022-10-18T16:42:26.400Z,10.37
2022-10-18T16:45:15.342Z,6.40
2022-10-18T16:48:04.283Z,8.30
2022-10-18T16:50:53.794Z,9.07
2022-10-18T16:53:42.891Z,7.43
2022-10-18T16:56:33.058Z,5.53
2022-10-18T16:59:25.162Z,5.00
2022-10-18T17:02:14.395Z,8.13
2022-10-18T17:05:03.323Z,6.10
2022-10-18T17:07:52.150Z,7.43
2022-10-18T17:10:41.011Z,6.90
2022-10-18T17:13:29.868Z,8.27
2022-10-18T17:16:24.719Z,6.70
2022-10-18T17:19:14.743Z,5.93
2022-10-18T17:22:03.654Z,7.80
2022-10-18T17:24:52.540Z,4.83
2022-10-18T17:27:41.414Z,4.87
2022-10-18T17:30:30.243Z,4.43
2022-10-18T17:33:20.445Z,4.80
2022-10-18T17:36:09.371Z,7.20
2022-10-18T17:38:58.324Z,6.83
2022-10-18T17:41:47.149Z,8.90
2022-10-18T17:44:35.994Z,7.37
2022-10-18T17:47:24.834Z,8.00
2022-10-18T17:50:15.265Z,10.00
2022-10-18T17:53:04.457Z,7.20
2022-10-18T17:56:02.252Z,4.60
2022-10-18T17:58:52.020Z,8.23
2022-10-18T18:01:40.919Z,7.87
2022-10-18T18:04:29.737Z,10.13
2022-10-18T18:07:19.953Z,4.90
2022-10-18T18:10:09.354Z,7.20
2022-10-18T18:12:58.231Z,14.40
2022-10-18T18:15:47.049Z,13.43
2022-10-18T18:18:36.990Z,9.50
2022-10-18T18:21:26.175Z,7.37
2022-10-18T18:24:17.656Z,12.20
2022-10-18T18:27:06.634Z,12.03
2022-10-18T18:29:56.183Z,8.20
2022-10-18T18:32:45.005Z,11.40
2022-10-18T18:35:33.840Z,12.63
2022-10-18T18:38:22.670Z,11.30
2022-10-18T18:41:14.433Z,9.77
2022-10-18T18:44:04.165Z,10.87
2022-10-18T18:46:53.030Z,8.77
2022-10-18T18:49:41.901Z,10.80
2022-10-18T18:52:31.086Z,7.50
2022-10-18T18:55:20.180Z,12.73
2022-10-18T18:58:10.459Z,8.60
2022-10-18T19:00:59.324Z,9.47
2022-10-18T19:03:50.792Z,9.83
2022-10-18T19:06:40.268Z,11.93
2022-10-18T19:09:29.213Z,8.83
2022-10-18T19:12:20.611Z,9.63
2022-10-18T19:15:11.928Z,12.00
2022-10-18T19:18:00.746Z,18.27
2022-10-18T19:20:49.558Z,7.63
2022-10-18T19:23:38.387Z,9.53
2022-10-18T19:26:29.498Z,6.30
2022-10-18T19:29:21.229Z,8.70
2022-10-18T19:32:13.450Z,7.80
2022-10-18T19:35:02.296Z,7.43
2022-10-18T19:37:51.129Z,8.20
2022-10-18T19:40:39.960Z,7.60
2022-10-18T19:43:29.343Z,7.80
2022-10-18T19:46:18.149Z,8.57
2022-10-18T19:49:08.370Z,8.50
2022-10-18T19:51:57.448Z,11.50
2022-10-18T19:54:46.255Z,10.10
2022-10-18T19:57:35.099Z,10.17
2022-10-18T20:00:24.021Z,8.60
2022-10-18T20:03:13.042Z,10.20
2022-10-18T20:06:03.867Z,8.20
2022-10-18T20:08:52.746Z,6.37
2022-10-18T20:11:41.850Z,8.50
2022-10-18T20:14:30.739Z,10.90
2022-10-18T20:17:20.769Z,9.87
2022-10-18T20:20:10.177Z,13.07
2022-10-18T20:23:00.380Z,7.00
2022-10-18T20:25:58.962Z,8.67
2022-10-18T20:28:48.743Z,9.37
2022-10-18T20:31:39.022Z,9.80
2022-10-18T20:34:28.709Z,7.40
2022-10-18T20:37:17.528Z,9.30
2022-10-18T20:40:08.256Z,11.07
2022-10-18T20:43:01.465Z,9.77
2022-10-18T20:45:57.385Z,12.00
2022-10-18T20:48:46.227Z,8.60
2022-10-18T20:51:35.642Z,7.87
2022-10-18T20:54:24.485Z,8.30
2022-10-18T20:57:14.661Z,9.50
2022-10-18T21:00:03.504Z,10.67
2022-10-18T21:02:52.330Z,8.17
2022-10-18T21:05:41.198Z,9.70
2022-10-18T21:08:30.300Z,7.70
2022-10-18T21:11:19.240Z,6.90
2022-10-18T21:14:09.605Z,6.80
2022-10-18T21:16:58.438Z,8.20
2022-10-18T21:19:47.267Z,10.23
2022-10-18T21:22:36.145Z,9.03
2022-10-18T21:25:25.020Z,10.10
2022-10-18T21:28:13.859Z,6.60
2022-10-18T21:31:12.490Z,10.50
2022-10-18T21:34:02.164Z,8.37
2022-10-18T21:36:51.013Z,10.50
2022-10-18T21:39:41.973Z,8.90
2022-10-18T21:42:30.975Z,10.80
2022-10-18T21:45:20.023Z,8.73
2022-10-18T21:48:10.359Z,7.50
2022-10-18T21:51:03.393Z,9.73
2022-10-18T21:53:52.969Z,8.60
2022-10-18T21:56:41.800Z,7.57
2022-10-18T21:59:30.642Z,5.90
2022-10-18T22:02:19.433Z,7.70
2022-10-18T22:05:12.103Z,12.20
2022-10-18T22:08:01.187Z,9.70
2022-10-18T22:10:50.010Z,6.13
2022-10-18T22:13:39.135Z,11.10
2022-10-18T22:16:28.309Z,7.17
2022-10-18T22:19:17.132Z,8.53
2022-10-18T22:22:07.297Z,7.43
2022-10-18T22:24:56.116Z,6.40
2022-10-18T22:27:44.892Z,6.50
2022-10-18T22:30:37.896Z,7.93
2022-10-18T22:33:26.802Z,6.33
2022-10-18T22:36:15.713Z,7.50
2022-10-18T22:39:06.365Z,8.27
2022-10-18T22:41:56.524Z,7.40
2022-10-18T22:44:45.359Z,8.70
2022-10-18T22:47:34.542Z,9.93
2022-10-18T22:50:23.553Z,7.53
2022-10-18T22:53:12.374Z,6.73
2022-10-18T22:56:02.643Z,5.67
2022-10-18T22:58:52.593Z,9.37
2022-10-18T23:01:41.407Z,9.47
2022-10-18T23:04:30.249Z,9.43
2022-10-18T23:07:19.105Z,13.73
2022-10-18T23:10:08.059Z,7.63
2022-10-18T23:12:58.246Z,8.17
2022-10-18T23:15:47.100Z,9.07
2022-10-18T23:18:35.954Z,7.27
2022-10-18T23:21:26.227Z,9.20
2022-10-18T23:24:15.050Z,7.87
2022-10-18T23:27:03.848Z,9.40
2022-10-18T23:29:54.026Z,12.33
2022-10-18T23:32:42.816Z,11.97
2022-10-18T23:35:31.655Z,13.13
2022-10-18T23:38:20.455Z,12.00
2022-10-18T23:41:09.925Z,9.57
2022-10-18T23:43:58.738Z,8.53
2022-10-18T23:46:48.903Z,9.43
2022-10-18T23:49:38.064Z,15.63
2022-10-18T23:52:26.934Z,9.30
2022-10-18T23:55:15.906Z,7.63
2022-10-18T23:58:04.734Z,11.50
